createdAt,value
2022-08-23T00:00:13.151Z,20.73
2022-08-23T00:01:08.675Z,20.72
2022-08-23T00:02:08.310Z,20.73
2022-08-23T00:03:09.446Z,20.73
2022-08-23T00:04:08.430Z,20.73
2022-08-23T00:05:10.016Z,20.69
2022-08-23T00:06:08.359Z,20.68
2022-08-23T00:07:08.550Z,20.66
2022-08-23T00:08:08.582Z,20.64
2022-08-23T00:09:08.666Z,20.64
2022-08-23T00:10:08.692Z,20.64
2022-08-23T00:11:08.741Z,20.63
2022-08-23T00:12:08.777Z,20.60
2022-08-23T00:13:08.891Z,20.56
2022-08-23T00:14:08.933Z,20.51
2022-08-23T00:15:08.970Z,20.48
2022-08-23T00:16:08.127Z,20.42
2022-08-23T00:17:08.155Z,20.41
2022-08-23T00:18:08.217Z,20.37
2022-08-23T00:19:08.273Z,20.34
2022-08-23T00:20:08.492Z,20.31
2022-08-23T00:21:08.347Z,20.30
2022-08-23T00:22:08.734Z,20.27
2022-08-23T00:23:08.785Z,20.26
2022-08-23T00:24:08.814Z,20.23
2022-08-23T00:25:08.856Z,20.23
2022-08-23T00:26:08.892Z,20.22
2022-08-23T00:27:08.955Z,20.22
2022-08-23T00:28:13.659Z,20.20
2022-08-23T00:29:09.031Z,20.17
2022-08-23T00:30:09.102Z,20.17
2022-08-23T00:31:08.122Z,20.16
2022-08-23T00:32:08.156Z,20.13
2022-08-23T00:33:08.225Z,20.16
2022-08-23T00:34:09.299Z,20.15
2022-08-23T00:35:08.284Z,20.13
2022-08-23T00:36:08.376Z,20.12
2022-08-23T00:37:08.388Z,20.12
2022-08-23T00:38:33.014Z,20.10
2022-08-23T00:39:09.468Z,20.08
2022-08-23T00:40:08.569Z,20.12
2022-08-23T00:41:08.578Z,20.10
2022-08-23T00:42:08.461Z,20.07
2022-08-23T00:43:08.498Z,20.05
2022-08-23T00:44:08.560Z,20.04
2022-08-23T00:45:08.612Z,19.98
2022-08-23T00:46:08.674Z,19.97
2022-08-23T00:47:08.730Z,19.90
2022-08-23T00:48:08.152Z,19.89
2022-08-23T00:49:08.170Z,19.85
2022-08-23T00:50:19.212Z,19.82
2022-08-23T00:51:09.250Z,19.78
2022-08-23T00:52:08.333Z,19.75
2022-08-23T00:53:08.359Z,19.72
2022-08-23T00:54:08.423Z,19.70
2022-08-23T00:55:08.468Z,19.65
2022-08-23T00:56:09.572Z,19.65
2022-08-23T00:57:08.587Z,19.62
2022-08-23T00:58:07.603Z,19.58
2022-08-23T00:59:08.670Z,19.58
2022-08-23T01:00:08.725Z,19.55
2022-08-23T01:01:07.536Z,19.52
2022-08-23T01:02:07.705Z,19.50
2022-08-23T01:03:10.731Z,19.47
2022-08-23T01:04:07.669Z,19.45
2022-08-23T01:05:08.738Z,19.43
2022-08-23T01:06:07.788Z,19.43
2022-08-23T01:07:08.861Z,19.42
2022-08-23T01:08:08.883Z,19.40
2022-08-23T01:09:08.932Z,19.39
2022-08-23T01:10:09.006Z,19.32
2022-08-23T01:11:08.883Z,19.34
2022-08-23T01:12:08.102Z,19.30
2022-08-23T01:13:08.189Z,19.34
2022-08-23T01:14:08.267Z,19.31
2022-08-23T01:15:08.335Z,19.30
2022-08-23T01:16:08.392Z,19.30
2022-08-23T01:17:08.440Z,19.28
2022-08-23T01:18:08.518Z,19.25
2022-08-23T01:19:08.545Z,19.21
2022-08-23T01:20:08.586Z,19.15
2022-08-23T01:21:10.345Z,19.12
2022-08-23T01:22:07.673Z,19.10
2022-08-23T01:23:07.668Z,19.09
2022-08-23T01:24:11.022Z,19.05
2022-08-23T01:25:09.246Z,19.05
2022-08-23T01:26:08.790Z,19.05
2022-08-23T01:27:08.827Z,19.05
2022-08-23T01:28:07.820Z,19.05
2022-08-23T01:29:10.946Z,19.06
2022-08-23T01:30:07.878Z,19.05
2022-08-23T01:31:07.248Z,19.06
2022-08-23T01:32:08.347Z,19.06
2022-08-23T01:33:08.436Z,19.06
2022-08-23T01:34:09.298Z,19.09
2022-08-23T01:35:08.463Z,19.07
2022-08-23T01:36:09.724Z,19.09
2022-08-23T01:37:08.171Z,19.10
2022-08-23T01:38:08.243Z,19.12
2022-08-23T01:39:08.321Z,19.13
2022-08-23T01:40:08.427Z,19.12
2022-08-23T01:41:07.448Z,19.13
2022-08-23T01:42:08.531Z,19.13
2022-08-23T01:43:07.580Z,19.15
2022-08-23T01:44:08.714Z,19.15
2022-08-23T01:45:07.772Z,19.15
2022-08-23T01:46:08.970Z,19.16
2022-08-23T01:47:08.159Z,19.17
2022-08-23T01:48:08.216Z,19.17
2022-08-23T01:49:08.640Z,19.21
2022-08-23T01:50:08.424Z,19.23
2022-08-23T01:51:07.421Z,19.24
2022-08-23T01:52:08.598Z,19.25
2022-08-23T01:53:08.630Z,19.28
2022-08-23T01:54:07.680Z,19.27
2022-08-23T01:55:07.774Z,19.31
2022-08-23T01:56:08.282Z,19.34
2022-08-23T01:57:08.364Z,19.35
2022-08-23T01:58:08.440Z,19.32
2022-08-23T01:59:08.486Z,19.31
2022-08-23T02:00:07.794Z,19.31
2022-08-23T02:01:07.874Z,19.28
2022-08-23T02:02:09.042Z,19.27
2022-08-23T02:03:10.913Z,19.20
2022-08-23T02:04:07.871Z,19.16
2022-08-23T02:05:08.912Z,19.09
2022-08-23T02:06:08.071Z,18.99
2022-08-23T02:07:08.174Z,18.91
2022-08-23T02:08:08.256Z,18.90
2022-08-23T02:09:17.419Z,18.89
2022-08-23T02:10:08.403Z,18.86
2022-08-23T02:11:08.536Z,18.86
2022-08-23T02:12:08.631Z,18.84
2022-08-23T02:13:08.747Z,18.83
2022-08-23T02:14:08.828Z,18.82
2022-08-23T02:15:08.910Z,18.84
2022-08-23T02:16:07.956Z,18.83
2022-08-23T02:17:09.076Z,18.82
2022-08-23T02:18:10.183Z,18.82
2022-08-23T02:19:08.205Z,18.82
2022-08-23T02:20:09.360Z,18.83
2022-08-23T02:22:08.424Z,18.82
2022-08-23T02:23:08.496Z,18.79
2022-08-23T02:24:07.706Z,18.82
2022-08-23T02:25:07.762Z,18.79
2022-08-23T02:26:09.076Z,18.83
2022-08-23T02:27:07.890Z,18.82
2022-08-23T02:28:10.038Z,18.78
2022-08-23T02:29:08.040Z,18.76
2022-08-23T02:30:09.128Z,18.75
2022-08-23T02:31:08.146Z,18.71
2022-08-23T02:32:08.257Z,18.68
2022-08-23T02:33:08.310Z,18.68
2022-08-23T02:34:08.376Z,18.62
2022-08-23T02:35:08.433Z,18.60
2022-08-23T02:36:08.549Z,18.57
2022-08-23T02:37:08.564Z,18.56
2022-08-23T02:38:08.588Z,18.56
2022-08-23T02:39:08.672Z,18.51
2022-08-23T02:40:08.834Z,18.51
2022-08-23T02:41:07.759Z,18.50
2022-08-23T02:42:08.868Z,18.50
2022-08-23T02:43:08.931Z,18.49
2022-08-23T02:44:08.980Z,18.46
2022-08-23T02:45:08.025Z,18.47
2022-08-23T02:46:08.192Z,18.47
2022-08-23T02:47:08.251Z,18.47
2022-08-23T02:48:08.330Z,18.49
2022-08-23T02:49:08.358Z,18.50
2022-08-23T02:50:08.419Z,18.50
2022-08-23T02:51:07.449Z,18.51
2022-08-23T02:52:08.540Z,18.50
2022-08-23T02:53:08.607Z,18.53
2022-08-23T02:54:07.632Z,18.53
2022-08-23T02:55:08.154Z,18.53
2022-08-23T02:56:17.093Z,18.51
2022-08-23T02:57:07.205Z,18.53
2022-08-23T02:58:08.348Z,18.53
2022-08-23T02:59:08.435Z,18.53
2022-08-23T03:00:08.443Z,18.51
2022-08-23T03:01:07.463Z,18.53
2022-08-23T03:02:08.592Z,18.51
2022-08-23T03:03:08.602Z,18.51
2022-08-23T03:04:07.608Z,18.53
2022-08-23T03:05:07.679Z,18.53
2022-08-23T03:06:25.967Z,18.53
2022-08-23T03:07:06.782Z,18.53
2022-08-23T03:08:07.925Z,18.53
2022-08-23T03:09:08.015Z,18.54
2022-08-23T03:10:06.015Z,18.54
2022-08-23T03:11:09.904Z,18.54
2022-08-23T03:12:06.212Z,18.54
2022-08-23T03:13:06.307Z,18.54
2022-08-23T03:14:06.397Z,18.53
2022-08-23T03:15:05.824Z,18.51
2022-08-23T03:16:05.866Z,18.51
2022-08-23T03:17:07.690Z,18.51
2022-08-23T03:18:06.072Z,18.51
2022-08-23T03:19:06.107Z,18.50
2022-08-23T03:20:06.237Z,18.51
2022-08-23T03:21:06.239Z,18.53
2022-08-23T03:22:06.324Z,18.51
2022-08-23T03:23:06.441Z,18.50
2022-08-23T03:24:10.217Z,18.50
2022-08-23T03:25:05.587Z,18.51
2022-08-23T03:26:05.675Z,18.50
2022-08-23T03:27:05.747Z,18.50
2022-08-23T03:28:05.818Z,18.49
2022-08-23T03:29:06.487Z,18.49
2022-08-23T03:30:05.681Z,18.46
2022-08-23T03:31:05.767Z,18.46
2022-08-23T03:32:05.839Z,18.44
2022-08-23T03:33:06.875Z,18.41
2022-08-23T03:34:05.975Z,18.39
2022-08-23T03:35:07.000Z,18.36
2022-08-23T03:36:07.097Z,18.36
2022-08-23T03:37:06.159Z,18.32
2022-08-23T03:38:06.231Z,18.31
2022-08-23T03:39:06.307Z,18.31
2022-08-23T03:40:07.487Z,18.28
2022-08-23T03:41:05.393Z,18.23
2022-08-23T03:42:05.455Z,18.20
2022-08-23T03:43:05.541Z,18.17
2022-08-23T03:44:05.595Z,18.14
2022-08-23T03:45:05.651Z,18.11
2022-08-23T03:46:06.681Z,18.09
2022-08-23T03:47:06.710Z,18.07
2022-08-23T03:48:05.829Z,18.04
2022-08-23T03:49:05.915Z,18.02
2022-08-23T03:50:05.954Z,17.98
2022-08-23T03:51:05.999Z,17.95
2022-08-23T03:52:06.263Z,17.89
2022-08-23T03:53:06.093Z,17.84
2022-08-23T03:54:06.154Z,17.77
2022-08-23T03:55:05.181Z,17.71
2022-08-23T03:56:05.245Z,17.70
2022-08-23T03:57:05.306Z,17.66
2022-08-23T03:58:06.810Z,17.63
2022-08-23T03:59:05.423Z,17.58
2022-08-23T04:00:05.493Z,17.57
2022-08-23T04:01:05.562Z,17.57
2022-08-23T04:02:05.666Z,17.55
2022-08-23T04:03:05.696Z,17.57
2022-08-23T04:04:06.725Z,17.54
2022-08-23T04:05:06.796Z,17.53
2022-08-23T04:06:05.897Z,17.53
2022-08-23T04:07:06.919Z,17.53
2022-08-23T04:08:04.991Z,17.51
2022-08-23T04:09:05.050Z,17.49
2022-08-23T04:10:06.357Z,17.47
2022-08-23T04:11:06.177Z,17.45
2022-08-23T04:12:12.010Z,17.45
2022-08-23T04:13:06.222Z,17.45
2022-08-23T04:14:07.345Z,17.47
2022-08-23T04:15:06.760Z,17.51
2022-08-23T04:16:06.377Z,17.57
2022-08-23T04:17:05.377Z,17.58
2022-08-23T04:18:05.438Z,17.62
2022-08-23T04:19:05.475Z,17.62
2022-08-23T04:20:05.779Z,17.58
2022-08-23T04:21:06.559Z,17.63
2022-08-23T04:22:05.833Z,17.62
2022-08-23T04:23:06.961Z,17.63
2022-08-23T04:24:06.091Z,17.63
2022-08-23T04:25:34.507Z,17.58
2022-08-23T04:26:05.952Z,17.62
2022-08-23T04:27:06.789Z,17.60
2022-08-23T04:28:05.193Z,17.65
2022-08-23T04:29:05.146Z,17.57
2022-08-23T04:30:05.233Z,17.57
2022-08-23T04:31:05.290Z,17.51
2022-08-23T04:32:07.851Z,17.54
2022-08-23T04:33:10.646Z,17.53
2022-08-23T04:34:05.447Z,17.53
2022-08-23T04:35:05.515Z,17.54
2022-08-23T04:36:05.573Z,17.54
2022-08-23T04:37:09.166Z,17.55
2022-08-23T04:38:04.673Z,17.55
2022-08-23T04:39:06.815Z,17.55
2022-08-23T04:40:04.843Z,17.57
2022-08-23T04:41:04.837Z,17.57
2022-08-23T04:42:05.901Z,17.57
2022-08-23T04:43:04.971Z,17.58
2022-08-23T04:44:05.081Z,17.58
2022-08-23T04:45:06.795Z,17.63
2022-08-23T04:46:05.192Z,17.66
2022-08-23T04:47:05.233Z,17.68
2022-08-23T04:48:05.284Z,17.70
2022-08-23T04:49:05.348Z,17.71
2022-08-23T04:50:05.394Z,17.73
2022-08-23T04:51:06.767Z,17.76
2022-08-23T04:52:04.515Z,17.79
2022-08-23T04:53:04.565Z,17.77
2022-08-23T04:54:04.642Z,17.79
2022-08-23T04:55:04.670Z,17.81
2022-08-23T04:56:04.711Z,17.80
2022-08-23T04:57:07.012Z,17.80
2022-08-23T04:58:04.912Z,17.80
2022-08-23T04:59:04.925Z,17.79
2022-08-23T05:00:05.008Z,17.77
2022-08-23T05:01:05.117Z,17.74
2022-08-23T05:02:05.090Z,17.71
2022-08-23T05:03:09.054Z,17.68
2022-08-23T05:04:05.320Z,17.65
2022-08-23T05:05:04.226Z,17.60
2022-08-23T05:06:05.272Z,17.58
2022-08-23T05:07:04.334Z,17.53
2022-08-23T05:08:04.409Z,17.53
2022-08-23T05:09:07.218Z,17.54
2022-08-23T05:10:04.549Z,17.54
2022-08-23T05:11:04.598Z,17.55
2022-08-23T05:12:04.659Z,17.54
2022-08-23T05:13:04.728Z,17.54
2022-08-23T05:14:04.799Z,17.53
2022-08-23T05:15:12.531Z,17.54
2022-08-23T05:16:04.953Z,17.54
2022-08-23T05:17:05.794Z,17.55
2022-08-23T05:18:05.087Z,17.57
2022-08-23T05:19:04.096Z,17.60
2022-08-23T05:20:04.155Z,17.63
2022-08-23T05:21:04.240Z,17.66
2022-08-23T05:22:04.290Z,17.70
2022-08-23T05:23:04.340Z,17.71
2022-08-23T05:24:04.389Z,17.74
2022-08-23T05:25:04.462Z,17.76
2022-08-23T05:26:06.331Z,17.79
2022-08-23T05:27:04.604Z,17.81
2022-08-23T05:28:06.641Z,17.81
2022-08-23T05:29:04.768Z,17.86
2022-08-23T05:30:04.843Z,17.87
2022-08-23T05:31:03.893Z,17.89
2022-08-23T05:32:04.042Z,17.89
2022-08-23T05:33:04.033Z,17.91
2022-08-23T05:34:04.124Z,17.91
2022-08-23T05:35:04.210Z,17.94
2022-08-23T05:36:04.272Z,17.94
2022-08-23T05:37:06.395Z,17.98
2022-08-23T05:38:04.414Z,18.01
2022-08-23T05:39:04.461Z,18.04
2022-08-23T05:40:04.584Z,18.04
2022-08-23T05:41:05.397Z,18.09
2022-08-23T05:42:04.634Z,18.10
2022-08-23T05:43:06.282Z,18.14
2022-08-23T05:44:03.684Z,18.13
2022-08-23T05:45:06.125Z,18.13
2022-08-23T05:46:03.847Z,18.16
2022-08-23T05:47:03.885Z,18.19
2022-08-23T05:48:04.961Z,18.20
2022-08-23T05:49:04.064Z,18.20
2022-08-23T05:50:04.088Z,18.23
2022-08-23T05:51:04.137Z,18.23
2022-08-23T05:52:04.200Z,18.25
2022-08-23T05:53:04.259Z,18.29
2022-08-23T05:54:04.315Z,18.31
2022-08-23T05:55:06.231Z,18.31
2022-08-23T05:56:04.418Z,18.32
2022-08-23T05:57:04.473Z,18.32
2022-08-23T05:58:03.517Z,18.34
2022-08-23T05:59:03.605Z,18.35
2022-08-23T06:00:03.698Z,18.35
2022-08-23T06:01:03.736Z,18.35
2022-08-23T06:02:03.753Z,18.35
2022-08-23T06:03:03.842Z,18.35
2022-08-23T06:04:03.915Z,18.38
2022-08-23T06:05:03.949Z,18.42
2022-08-23T06:06:04.005Z,18.44
2022-08-23T06:07:04.064Z,18.47
2022-08-23T06:08:04.111Z,18.50
2022-08-23T06:09:04.170Z,18.50
2022-08-23T06:10:04.224Z,18.53
2022-08-23T06:11:04.284Z,18.53
2022-08-23T06:12:04.339Z,18.54
2022-08-23T06:13:03.360Z,18.59
2022-08-23T06:14:03.460Z,18.60
2022-08-23T06:15:03.479Z,18.64
2022-08-23T06:16:14.944Z,18.65
2022-08-23T06:17:04.600Z,18.69
2022-08-23T06:18:03.661Z,18.71
2022-08-23T06:19:03.742Z,18.72
2022-08-23T06:20:03.824Z,18.75
2022-08-23T06:21:03.898Z,18.79
2022-08-23T06:22:03.929Z,18.83
2022-08-23T06:23:03.963Z,18.87
2022-08-23T06:24:04.003Z,18.90
2022-08-23T06:25:06.276Z,18.94
2022-08-23T06:26:06.362Z,18.99
2022-08-23T06:27:03.101Z,19.02
2022-08-23T06:28:03.264Z,19.06
2022-08-23T06:29:03.250Z,19.10
2022-08-23T06:30:03.304Z,19.16
2022-08-23T06:31:03.412Z,19.20
2022-08-23T06:32:03.649Z,19.24
2022-08-23T06:33:08.702Z,19.28
2022-08-23T06:34:03.617Z,19.31
2022-08-23T06:35:36.824Z,19.34
2022-08-23T06:36:05.628Z,19.39
2022-08-23T06:37:03.721Z,19.42
2022-08-23T06:38:04.670Z,19.45
2022-08-23T06:39:03.843Z,19.49
2022-08-23T06:40:03.936Z,19.53
2022-08-23T06:41:03.931Z,19.57
2022-08-23T06:42:10.113Z,19.62
2022-08-23T06:43:04.075Z,19.65
2022-08-23T06:44:05.028Z,19.71
2022-08-23T06:45:03.128Z,19.78
2022-08-23T06:46:03.184Z,19.83
2022-08-23T06:47:04.236Z,19.90
2022-08-23T06:48:03.483Z,19.98
2022-08-23T06:49:03.356Z,20.05
2022-08-23T06:50:03.406Z,20.08
2022-08-23T06:51:03.461Z,20.12
2022-08-23T06:52:03.497Z,20.15
2022-08-23T06:53:06.858Z,20.20
2022-08-23T06:54:03.628Z,20.22
2022-08-23T06:55:03.703Z,20.26
2022-08-23T06:56:03.718Z,20.33
2022-08-23T06:57:02.739Z,20.37
2022-08-23T06:58:02.795Z,20.44
2022-08-23T06:59:02.860Z,20.51
2022-08-23T07:00:02.936Z,20.54
2022-08-23T07:01:03.009Z,20.57
2022-08-23T07:02:04.243Z,20.63
2022-08-23T07:03:03.402Z,20.66
2022-08-23T07:04:03.127Z,20.72
2022-08-23T07:05:03.186Z,20.79
2022-08-23T07:06:03.240Z,20.83
2022-08-23T07:07:03.297Z,20.87
2022-08-23T07:08:03.335Z,20.91
2022-08-23T07:09:03.385Z,20.96
2022-08-23T07:10:03.448Z,21.01
2022-08-23T07:11:03.580Z,21.03
2022-08-23T07:12:03.520Z,21.06
2022-08-23T07:13:02.527Z,21.11
2022-08-23T07:14:02.559Z,21.12
2022-08-23T07:15:02.623Z,21.11
2022-08-23T07:16:03.679Z,21.13
2022-08-23T07:17:02.733Z,21.18
2022-08-23T07:18:02.753Z,21.21
2022-08-23T07:19:02.789Z,21.28
2022-08-23T07:20:02.823Z,21.30
2022-08-23T07:21:02.882Z,21.37
2022-08-23T07:22:02.920Z,21.46
2022-08-23T07:23:03.106Z,21.49
2022-08-23T07:24:03.008Z,21.51
2022-08-23T07:25:03.034Z,21.53
2022-08-23T07:26:03.147Z,21.56
2022-08-23T07:27:04.057Z,21.59
2022-08-23T07:28:03.155Z,21.63
2022-08-23T07:29:03.189Z,21.64
2022-08-23T07:30:03.211Z,21.66
2022-08-23T07:31:03.297Z,21.70
2022-08-23T07:32:03.302Z,21.74
2022-08-23T07:33:02.429Z,21.77
2022-08-23T07:34:02.343Z,21.85
2022-08-23T07:35:02.365Z,21.91
2022-08-23T07:36:03.444Z,21.96
2022-08-23T07:37:02.443Z,22.01
2022-08-23T07:38:02.560Z,22.04
2022-08-23T07:39:02.466Z,22.11
2022-08-23T07:40:02.587Z,22.15
2022-08-23T07:41:02.525Z,22.15
2022-08-23T07:42:02.570Z,22.17
2022-08-23T07:43:03.628Z,22.20
2022-08-23T07:44:02.832Z,22.23
2022-08-23T07:45:02.689Z,22.29
2022-08-23T07:46:04.269Z,22.31
2022-08-23T07:47:02.767Z,22.36
2022-08-23T07:48:03.075Z,22.38
2022-08-23T07:49:02.831Z,22.42
2022-08-23T07:50:02.887Z,22.45
2022-08-23T07:51:02.952Z,22.48
2022-08-23T07:52:02.968Z,22.48
2022-08-23T07:53:03.031Z,22.54
2022-08-23T07:54:02.047Z,22.60
2022-08-23T07:55:02.051Z,22.66
2022-08-23T07:56:03.190Z,22.70
2022-08-23T07:57:02.458Z,22.74
2022-08-23T07:58:02.377Z,22.79
2022-08-23T07:59:02.189Z,22.85
2022-08-23T08:00:02.233Z,22.85
2022-08-23T08:01:02.292Z,22.85
2022-08-23T08:02:02.327Z,22.89
2022-08-23T08:03:02.458Z,22.93
2022-08-23T08:04:02.360Z,22.99
2022-08-23T08:05:02.383Z,23.01
2022-08-23T08:06:03.373Z,23.06
2022-08-23T08:07:18.735Z,23.06
2022-08-23T08:08:03.514Z,23.09
2022-08-23T08:09:02.519Z,23.12
2022-08-23T08:10:02.542Z,23.18
2022-08-23T08:11:02.560Z,23.18
2022-08-23T08:12:02.581Z,23.18
2022-08-23T08:13:02.592Z,23.18
2022-08-23T08:14:02.650Z,23.18
2022-08-23T08:15:02.630Z,23.23
2022-08-23T08:16:02.704Z,23.25
2022-08-23T08:17:02.704Z,23.26
2022-08-23T08:18:01.888Z,23.19
2022-08-23T08:19:01.723Z,23.18
2022-08-23T08:20:01.767Z,23.15
2022-08-23T08:21:01.761Z,23.12
2022-08-23T08:22:01.820Z,23.11
2022-08-23T08:23:01.829Z,23.12
2022-08-23T08:24:01.856Z,23.14
2022-08-23T08:25:03.042Z,23.14
2022-08-23T08:26:01.905Z,23.19
2022-08-23T08:27:01.970Z,23.22
2022-08-23T08:28:02.178Z,23.31
2022-08-23T08:29:01.999Z,23.32
2022-08-23T08:30:02.003Z,23.38
2022-08-23T08:31:02.092Z,23.47
2022-08-23T08:32:02.041Z,23.53
2022-08-23T08:33:02.195Z,23.59
2022-08-23T08:34:02.075Z,23.63
2022-08-23T08:35:02.125Z,23.64
2022-08-23T08:36:03.484Z,23.69
2022-08-23T08:37:02.153Z,23.71
2022-08-23T08:38:02.181Z,23.71
2022-08-23T08:39:02.226Z,23.74
2022-08-23T08:40:02.313Z,23.74
2022-08-23T08:41:02.287Z,23.74
2022-08-23T08:42:04.362Z,23.77
2022-08-23T08:43:02.512Z,23.78
2022-08-23T08:44:02.357Z,23.79
2022-08-23T08:45:01.371Z,23.84
2022-08-23T08:46:01.427Z,23.87
2022-08-23T08:47:01.402Z,23.92
2022-08-23T08:48:01.589Z,23.94
2022-08-23T08:49:01.449Z,23.93
2022-08-23T08:50:01.459Z,23.97
2022-08-23T08:51:01.470Z,24.00
2022-08-23T08:52:01.543Z,24.02
2022-08-23T08:53:01.503Z,24.06
2022-08-23T08:54:01.531Z,24.12
2022-08-23T08:55:01.520Z,24.15
2022-08-23T08:56:01.530Z,24.26
2022-08-23T08:57:01.556Z,24.33
2022-08-23T08:58:01.725Z,24.39
2022-08-23T08:59:01.564Z,24.44
2022-08-23T09:00:01.594Z,24.48
2022-08-23T09:01:01.614Z,24.55
2022-08-23T09:02:01.648Z,24.63
2022-08-23T09:03:01.710Z,24.67
2022-08-23T09:04:01.633Z,24.71
2022-08-23T09:05:01.637Z,24.75
2022-08-23T09:06:01.609Z,24.74
2022-08-23T09:07:01.771Z,24.71
2022-08-23T09:08:01.730Z,24.68
2022-08-23T09:09:02.187Z,24.74
2022-08-23T09:10:01.563Z,24.82
2022-08-23T09:11:01.547Z,24.86
2022-08-23T09:12:01.537Z,24.94
2022-08-23T09:13:01.545Z,25.02
2022-08-23T09:14:01.491Z,25.11
2022-08-23T09:15:01.665Z,25.19
2022-08-23T09:16:01.480Z,25.23
2022-08-23T09:17:01.449Z,25.23
2022-08-23T09:18:01.648Z,25.19
2022-08-23T09:19:01.443Z,25.17
2022-08-23T09:20:01.404Z,25.16
2022-08-23T09:21:01.385Z,25.17
2022-08-23T09:22:01.350Z,25.19
2022-08-23T09:23:01.349Z,25.22
2022-08-23T09:24:01.468Z,25.27
2022-08-23T09:25:01.335Z,25.36
2022-08-23T09:26:03.873Z,25.39
2022-08-23T09:27:01.297Z,25.48
2022-08-23T09:28:01.407Z,25.46
2022-08-23T09:29:01.267Z,25.48
2022-08-23T09:30:01.269Z,25.48
2022-08-23T09:31:01.304Z,25.49
2022-08-23T09:32:01.248Z,25.53
2022-08-23T09:33:01.303Z,25.54
2022-08-23T09:34:01.231Z,25.56
2022-08-23T09:35:01.208Z,25.60
2022-08-23T09:36:02.141Z,25.67
2022-08-23T09:37:01.203Z,25.72
2022-08-23T09:38:01.370Z,25.74
2022-08-23T09:39:01.171Z,25.67
2022-08-23T09:40:01.178Z,25.72
2022-08-23T09:41:01.150Z,25.72
2022-08-23T09:42:01.154Z,25.74
2022-08-23T09:43:01.172Z,25.75
2022-08-23T09:44:01.131Z,25.78
2022-08-23T09:45:01.162Z,25.82
2022-08-23T09:46:01.142Z,25.89
2022-08-23T09:47:01.061Z,25.94
2022-08-23T09:48:01.221Z,26.04
2022-08-23T09:49:01.261Z,26.12
2022-08-23T09:50:01.001Z,26.19
2022-08-23T09:51:01.137Z,26.17
2022-08-23T09:52:00.984Z,26.20
2022-08-23T09:53:03.903Z,26.27
2022-08-23T09:54:00.935Z,26.34
2022-08-23T09:55:00.965Z,26.41
2022-08-23T09:56:00.914Z,26.49
2022-08-23T09:57:00.889Z,26.60
2022-08-23T09:58:00.846Z,26.71
2022-08-23T09:59:00.815Z,26.76
2022-08-23T10:00:00.779Z,26.78
2022-08-23T10:01:00.804Z,26.78
2022-08-23T10:02:00.795Z,26.79
2022-08-23T10:03:00.868Z,26.72
2022-08-23T10:04:00.715Z,26.68
2022-08-23T10:05:00.786Z,26.65
2022-08-23T10:06:01.623Z,26.64
2022-08-23T10:07:00.678Z,26.65
2022-08-23T10:08:00.649Z,26.69
2022-08-23T10:09:00.629Z,26.75
2022-08-23T10:10:00.627Z,26.81
2022-08-23T10:11:00.653Z,26.84
2022-08-23T10:12:00.608Z,26.88
2022-08-23T10:13:00.721Z,26.90
2022-08-23T10:14:00.567Z,26.93
2022-08-23T10:15:00.531Z,26.94
2022-08-23T10:16:00.576Z,27.01
2022-08-23T10:17:00.482Z,27.01
2022-08-23T10:18:00.729Z,27.08
2022-08-23T10:19:00.451Z,27.15
2022-08-23T10:20:00.449Z,27.23
2022-08-23T10:21:00.401Z,27.30
2022-08-23T10:22:00.371Z,27.34
2022-08-23T10:23:01.381Z,27.38
2022-08-23T10:24:00.357Z,27.42
2022-08-23T10:25:00.372Z,27.45
2022-08-23T10:26:00.332Z,27.46
2022-08-23T10:27:00.296Z,27.43
2022-08-23T10:28:00.524Z,27.39
2022-08-23T10:29:00.279Z,27.35
2022-08-23T10:30:00.295Z,27.33
2022-08-23T10:31:00.396Z,27.28
2022-08-23T10:32:01.203Z,27.23
2022-08-23T10:33:00.238Z,27.21
2022-08-23T10:34:00.224Z,27.25
2022-08-23T10:35:00.212Z,27.31
2022-08-23T10:36:00.184Z,27.34
2022-08-23T10:37:00.186Z,27.46
2022-08-23T10:38:00.377Z,27.52
2022-08-23T10:39:00.113Z,27.59
2022-08-23T10:40:03.727Z,27.66
2022-08-23T10:41:00.098Z,27.74
2022-08-23T10:42:00.086Z,27.80
2022-08-23T10:43:00.075Z,27.81
2022-08-23T10:44:00.046Z,27.87
2022-08-23T10:45:00.027Z,27.96
2022-08-23T10:46:00.687Z,28.05
2022-08-23T10:46:59.954Z,28.02
2022-08-23T10:48:00.080Z,28.15
2022-08-23T10:48:59.937Z,28.21
2022-08-23T10:49:59.867Z,28.25
2022-08-23T10:50:59.847Z,28.38
2022-08-23T10:51:59.848Z,28.40
2022-08-23T10:52:59.822Z,28.45
2022-08-23T10:54:00.002Z,28.55
2022-08-23T10:54:59.858Z,28.55
2022-08-23T10:55:59.793Z,28.67
2022-08-23T10:56:59.770Z,28.80
2022-08-23T10:57:59.877Z,28.94
2022-08-23T10:58:59.759Z,29.10
2022-08-23T10:59:59.764Z,29.26
2022-08-23T11:00:59.851Z,29.39
2022-08-23T11:01:59.739Z,29.41
2022-08-23T11:02:59.764Z,29.47
2022-08-23T11:03:59.644Z,29.57
2022-08-23T11:04:59.640Z,29.63
2022-08-23T11:05:59.607Z,29.62
2022-08-23T11:06:59.591Z,29.52
2022-08-23T11:07:59.597Z,29.41
2022-08-23T11:08:59.531Z,29.44
2022-08-23T11:09:59.504Z,29.48
2022-08-23T11:11:00.495Z,29.51
2022-08-23T11:11:59.456Z,29.55
2022-08-23T11:12:59.474Z,29.60
2022-08-23T11:13:59.423Z,29.70
2022-08-23T11:14:59.405Z,29.73
2022-08-23T11:15:59.441Z,29.81
2022-08-23T11:16:59.365Z,29.78
2022-08-23T11:18:00.607Z,29.64
2022-08-23T11:18:59.340Z,29.52
2022-08-23T11:19:59.325Z,29.42
2022-08-23T11:21:00.332Z,29.27
2022-08-23T11:22:00.319Z,29.25
2022-08-23T11:23:00.277Z,29.26
2022-08-23T11:24:00.269Z,29.26
2022-08-23T11:25:00.245Z,29.32
2022-08-23T11:26:00.199Z,29.42
2022-08-23T11:27:05.358Z,29.49
2022-08-23T11:28:01.202Z,29.51
2022-08-23T11:29:00.158Z,29.64
2022-08-23T11:30:00.169Z,29.86
2022-08-23T11:31:00.207Z,29.97
2022-08-23T11:32:00.090Z,30.04
2022-08-23T11:33:00.058Z,30.11
2022-08-23T11:34:00.046Z,30.19
2022-08-23T11:35:00.020Z,30.29
2022-08-23T11:36:01.073Z,30.42
2022-08-23T11:36:59.957Z,30.37
2022-08-23T11:38:04.095Z,30.36
2022-08-23T11:39:00.964Z,30.48
2022-08-23T11:39:59.940Z,30.64
2022-08-23T11:40:59.842Z,30.83
2022-08-23T11:41:59.831Z,30.98
2022-08-23T11:42:59.763Z,30.94
2022-08-23T11:43:59.726Z,30.94
2022-08-23T11:44:59.694Z,30.93
2022-08-23T11:45:59.682Z,30.96
2022-08-23T11:46:59.638Z,31.03
2022-08-23T11:47:59.716Z,31.12
2022-08-23T11:48:59.567Z,31.12
2022-08-23T11:49:59.543Z,31.07
2022-08-23T11:50:59.612Z,31.04
2022-08-23T11:51:59.487Z,31.07
2022-08-23T11:52:59.463Z,30.97
2022-08-23T11:53:59.445Z,30.78
2022-08-23T11:54:59.394Z,30.57
2022-08-23T11:55:59.335Z,30.40
2022-08-23T11:56:59.275Z,30.16
2022-08-23T11:57:59.227Z,30.04
2022-08-23T11:58:59.205Z,29.95
2022-08-23T11:59:59.207Z,29.94
2022-08-23T12:00:59.127Z,30.00
2022-08-23T12:01:59.109Z,30.00
2022-08-23T12:02:59.138Z,29.97
2022-08-23T12:03:59.203Z,30.00
2022-08-23T12:04:59.028Z,30.06
2022-08-23T12:05:59.061Z,30.04
2022-08-23T12:06:58.991Z,30.00
2022-08-23T12:08:00.066Z,30.00
2022-08-23T12:08:58.931Z,30.03
2022-08-23T12:09:58.912Z,29.99
2022-08-23T12:10:58.867Z,29.97
2022-08-23T12:11:58.877Z,29.95
2022-08-23T12:12:58.821Z,30.04
2022-08-23T12:13:58.821Z,30.11
2022-08-23T12:14:58.789Z,30.22
2022-08-23T12:15:58.799Z,30.25
2022-08-23T12:16:58.731Z,30.30
2022-08-23T12:17:58.740Z,30.34
2022-08-23T12:18:58.682Z,30.37
2022-08-23T12:19:58.721Z,30.42
2022-08-23T12:20:58.663Z,30.54
2022-08-23T12:21:58.647Z,30.72
2022-08-23T12:22:58.641Z,30.88
2022-08-23T12:23:58.636Z,30.86
2022-08-23T12:24:58.574Z,30.93
2022-08-23T12:25:58.552Z,30.88
2022-08-23T12:26:58.551Z,30.97
2022-08-23T12:27:58.544Z,30.94
2022-08-23T12:28:58.506Z,30.96
2022-08-23T12:29:58.507Z,31.01
2022-08-23T12:30:58.470Z,31.03
2022-08-23T12:31:59.439Z,30.96
2022-08-23T12:32:59.386Z,30.85
2022-08-23T12:33:59.349Z,30.86
2022-08-23T12:34:59.327Z,30.97
2022-08-23T12:35:59.259Z,31.04
2022-08-23T12:36:59.228Z,31.13
2022-08-23T12:37:59.197Z,31.04
2022-08-23T12:38:59.164Z,31.04
2022-08-23T12:39:59.208Z,31.10
2022-08-23T12:40:59.194Z,31.18
2022-08-23T12:41:59.124Z,31.16
2022-08-23T12:42:59.107Z,31.05
2022-08-23T12:43:59.030Z,30.96
2022-08-23T12:44:59.947Z,30.86
2022-08-23T12:45:59.006Z,30.82
2022-08-23T12:46:58.979Z,30.90
2022-08-23T12:48:00.856Z,30.97
2022-08-23T12:48:58.825Z,30.98
2022-08-23T12:49:58.784Z,31.03
2022-08-23T12:50:58.752Z,31.20
2022-08-23T12:51:58.702Z,31.34
2022-08-23T12:52:58.787Z,31.42